createdAt,value
2019-03-18T00:00:19.228Z,6.08
2019-03-18T00:00:59.780Z,6.08
2019-03-18T00:01:40.325Z,5.98
2019-03-18T00:02:20.896Z,6.05
2019-03-18T00:03:01.461Z,5.99
2019-03-18T00:03:42.044Z,5.97
2019-03-18T00:04:22.606Z,5.94
2019-03-18T00:05:03.166Z,5.99
2019-03-18T00:05:43.725Z,5.97
2019-03-18T00:06:24.303Z,5.91
2019-03-18T00:07:04.863Z,5.93
2019-03-18T00:07:45.419Z,5.91
2019-03-18T00:08:25.986Z,5.97
2019-03-18T00:09:06.548Z,5.99
2019-03-18T00:09:47.103Z,5.94
2019-03-18T00:10:27.672Z,5.94
2019-03-18T00:11:08.226Z,6.02
2019-03-18T00:11:48.808Z,5.91
2019-03-18T00:12:29.383Z,5.94
2019-03-18T00:13:09.944Z,5.93
2019-03-18T00:13:50.546Z,5.93
2019-03-18T00:14:31.153Z,5.9
2019-03-18T00:15:11.703Z,5.93
2019-03-18T00:15:52.274Z,5.93
2019-03-18T00:16:32.853Z,5.97
2019-03-18T00:17:13.431Z,5.98
2019-03-18T00:17:53.972Z,5.93
2019-03-18T00:18:34.533Z,5.9
2019-03-18T00:19:15.102Z,6.01
2019-03-18T00:19:55.667Z,5.9
2019-03-18T00:20:36.275Z,5.91
2019-03-18T00:21:16.840Z,5.97
2019-03-18T00:21:57.394Z,5.97
2019-03-18T00:22:37.955Z,5.89
2019-03-18T00:23:18.525Z,5.94
2019-03-18T00:23:59.132Z,5.8
2019-03-18T00:24:39.700Z,5.86
2019-03-18T00:25:20.297Z,5.89
2019-03-18T00:26:00.882Z,5.89
2019-03-18T00:26:41.442Z,5.86
2019-03-18T00:27:21.991Z,5.91
2019-03-18T00:28:02.589Z,5.97
2019-03-18T00:28:43.149Z,5.91
2019-03-18T00:29:23.716Z,5.93
2019-03-18T00:30:04.282Z,5.9
2019-03-18T00:30:44.842Z,5.99
2019-03-18T00:31:25.449Z,5.93
2019-03-18T00:32:06.037Z,5.91
2019-03-18T00:32:46.572Z,5.91
2019-03-18T00:33:27.139Z,5.89
2019-03-18T00:34:07.698Z,5.89
2019-03-18T00:34:48.281Z,5.94
2019-03-18T00:35:28.830Z,5.9
2019-03-18T00:36:09.377Z,5.83
2019-03-18T00:36:49.933Z,5.89
2019-03-18T00:37:30.501Z,5.9
2019-03-18T00:38:11.063Z,5.84
2019-03-18T00:38:51.642Z,5.89
2019-03-18T00:39:32.197Z,5.89
2019-03-18T00:40:12.804Z,5.91
2019-03-18T00:40:53.374Z,5.91
2019-03-18T00:41:33.926Z,5.87
2019-03-18T00:42:14.488Z,5.84
2019-03-18T00:42:55.045Z,5.82
2019-03-18T00:43:35.614Z,5.84
2019-03-18T00:44:16.171Z,5.89
2019-03-18T00:44:56.741Z,5.91
2019-03-18T00:45:40.127Z,5.87
2019-03-18T00:46:17.892Z,5.89
2019-03-18T00:46:58.457Z,5.91
2019-03-18T00:47:39.006Z,5.93
2019-03-18T00:48:19.583Z,5.93
2019-03-18T00:49:00.137Z,5.86
2019-03-18T00:49:40.693Z,5.91
2019-03-18T00:50:21.261Z,5.94
2019-03-18T00:51:01.825Z,5.87
2019-03-18T00:51:42.384Z,5.9
2019-03-18T00:52:22.942Z,5.91
2019-03-18T00:53:03.526Z,5.91
2019-03-18T00:53:44.078Z,5.97
2019-03-18T00:54:24.647Z,5.9
2019-03-18T00:55:05.299Z,5.91
2019-03-18T00:55:46.267Z,5.89
2019-03-18T00:56:26.845Z,5.86
2019-03-18T00:57:07.398Z,5.94
2019-03-18T00:57:47.955Z,5.86
2019-03-18T00:58:28.531Z,5.91
2019-03-18T00:59:09.081Z,5.83
2019-03-18T00:59:49.628Z,5.84
2019-03-18T01:00:30.193Z,5.79
2019-03-18T01:01:10.763Z,5.87
2019-03-18T01:01:51.344Z,5.83
2019-03-18T01:02:31.918Z,5.87
2019-03-18T01:03:12.461Z,5.73
2019-03-18T01:03:53.025Z,5.72
2019-03-18T01:04:33.586Z,5.72
2019-03-18T01:05:14.143Z,5.72
2019-03-18T01:05:54.761Z,5.71
2019-03-18T01:06:35.363Z,5.71
2019-03-18T01:07:15.955Z,5.65
2019-03-18T01:07:56.546Z,5.64
2019-03-18T01:08:37.115Z,5.68
2019-03-18T01:09:17.663Z,5.59
2019-03-18T01:09:58.265Z,5.64
2019-03-18T01:10:38.846Z,5.65
2019-03-18T01:11:19.405Z,5.48
2019-03-18T01:11:59.957Z,5.64
2019-03-18T01:12:40.506Z,5.56
2019-03-18T01:13:21.084Z,5.56
2019-03-18T01:14:01.643Z,5.54
2019-03-18T01:14:42.216Z,5.51
2019-03-18T01:15:27.776Z,5.53
2019-03-18T01:16:03.322Z,5.53
2019-03-18T01:16:43.876Z,5.47
2019-03-18T01:17:24.448Z,5.56
2019-03-18T01:18:05.013Z,5.5
2019-03-18T01:18:45.577Z,5.48
2019-03-18T01:19:26.140Z,5.53
2019-03-18T01:20:06.711Z,5.41
2019-03-18T01:20:47.294Z,5.47
2019-03-18T01:21:27.862Z,5.47
2019-03-18T01:22:08.416Z,5.46
2019-03-18T01:22:48.973Z,5.46
2019-03-18T01:23:29.531Z,5.41
2019-03-18T01:24:10.079Z,5.39
2019-03-18T01:24:50.657Z,5.47
2019-03-18T01:25:31.212Z,5.44
2019-03-18T01:26:11.784Z,5.46
2019-03-18T01:26:52.345Z,5.46
2019-03-18T01:27:32.944Z,5.44
2019-03-18T01:28:13.502Z,5.39
2019-03-18T01:28:54.059Z,5.39
2019-03-18T01:29:34.624Z,5.38
2019-03-18T01:30:15.203Z,5.48
2019-03-18T01:30:55.746Z,5.39
2019-03-18T01:31:36.314Z,5.43
2019-03-18T01:32:16.885Z,5.43
2019-03-18T01:32:57.481Z,5.39
2019-03-18T01:33:38.041Z,5.5
2019-03-18T01:34:18.590Z,5.43
2019-03-18T01:34:59.142Z,5.41
2019-03-18T01:35:40.018Z,5.47
2019-03-18T01:36:20.259Z,5.48
2019-03-18T01:37:00.825Z,5.44
2019-03-18T01:37:41.379Z,5.43
2019-03-18T01:38:21.939Z,5.36
2019-03-18T01:39:02.503Z,5.46
2019-03-18T01:39:43.062Z,5.44
2019-03-18T01:40:23.630Z,5.38
2019-03-18T01:41:04.187Z,5.41
2019-03-18T01:41:44.751Z,5.41
2019-03-18T01:42:25.312Z,5.35
2019-03-18T01:43:05.883Z,5.41
2019-03-18T01:43:46.443Z,5.46
2019-03-18T01:44:27.005Z,5.41
2019-03-18T01:45:07.554Z,5.43
2019-03-18T01:45:48.110Z,5.33
2019-03-18T01:46:28.676Z,5.44
2019-03-18T01:47:09.238Z,5.35
2019-03-18T01:47:49.787Z,5.43
2019-03-18T01:48:30.326Z,5.43
2019-03-18T01:49:10.908Z,5.44
2019-03-18T01:49:51.450Z,5.39
2019-03-18T01:50:32.017Z,5.39
2019-03-18T01:51:12.557Z,5.46
2019-03-18T01:51:53.123Z,5.43
2019-03-18T01:52:33.665Z,5.39
2019-03-18T01:53:14.210Z,5.41
2019-03-18T01:53:54.785Z,5.36
2019-03-18T01:54:35.353Z,5.39
2019-03-18T01:55:15.934Z,5.39
2019-03-18T01:55:56.508Z,5.39
2019-03-18T01:56:37.075Z,5.38
2019-03-18T01:57:17.629Z,5.38
2019-03-18T01:57:58.197Z,5.35
2019-03-18T01:58:38.770Z,5.38
2019-03-18T01:59:19.320Z,5.36
2019-03-18T01:59:59.873Z,5.28
2019-03-18T02:00:40.427Z,5.3
2019-03-18T02:01:20.982Z,5.32
2019-03-18T02:02:01.558Z,5.35
2019-03-18T02:02:42.139Z,5.32
2019-03-18T02:03:22.685Z,5.26
2019-03-18T02:04:03.251Z,5.26
2019-03-18T02:04:43.822Z,5.23
2019-03-18T02:05:24.382Z,5.26
2019-03-18T02:06:04.951Z,5.29
2019-03-18T02:06:45.513Z,5.18
2019-03-18T02:07:26.062Z,5.2
2019-03-18T02:08:06.629Z,5.26
2019-03-18T02:08:47.185Z,5.23
2019-03-18T02:09:27.753Z,5.23
2019-03-18T02:10:08.298Z,5.23
2019-03-18T02:10:48.852Z,5.15
2019-03-18T02:11:29.423Z,5.21
2019-03-18T02:12:10.050Z,5.21
2019-03-18T02:12:50.542Z,5.14
2019-03-18T02:13:31.119Z,5.25
2019-03-18T02:14:11.675Z,5.23
2019-03-18T02:14:52.229Z,5.23
2019-03-18T02:15:32.790Z,5.26
2019-03-18T02:16:13.372Z,5.12
2019-03-18T02:16:53.930Z,5.2
2019-03-18T02:17:34.495Z,5.17
2019-03-18T02:18:15.060Z,5.17
2019-03-18T02:18:55.620Z,5.18
2019-03-18T02:19:36.173Z,5.11
2019-03-18T02:20:19.343Z,5.08
2019-03-18T02:20:57.303Z,5.18
2019-03-18T02:21:37.855Z,5.17
2019-03-18T02:22:18.415Z,5.14
2019-03-18T02:22:58.976Z,5.12
2019-03-18T02:23:39.547Z,5.17
2019-03-18T02:24:20.099Z,5.05
2019-03-18T02:25:00.670Z,5.05
2019-03-18T02:25:41.234Z,5.07
2019-03-18T02:26:21.797Z,5.08
2019-03-18T02:27:02.350Z,5.05
2019-03-18T02:27:42.912Z,5.1
2019-03-18T02:28:23.469Z,5.1
2019-03-18T02:29:04.130Z,5.04
2019-03-18T02:29:44.784Z,5.12
2019-03-18T02:30:25.544Z,5.07
2019-03-18T02:31:06.111Z,5.08
2019-03-18T02:31:46.670Z,5.05
2019-03-18T02:32:27.263Z,5.12
2019-03-18T02:33:07.808Z,5.07
2019-03-18T02:33:48.360Z,5.11
2019-03-18T02:34:28.940Z,5.07
2019-03-18T02:35:09.492Z,5.04
2019-03-18T02:35:50.107Z,5.1
2019-03-18T02:36:30.664Z,5.1
2019-03-18T02:37:11.230Z,5.04
2019-03-18T02:37:51.789Z,5.1
2019-03-18T02:38:32.352Z,5.02
2019-03-18T02:39:12.916Z,4.97
2019-03-18T02:39:53.491Z,5
2019-03-18T02:40:34.077Z,5.04
2019-03-18T02:41:14.617Z,5.04
2019-03-18T02:41:55.190Z,5.04
2019-03-18T02:42:35.755Z,5.02
2019-03-18T02:43:16.321Z,4.99
2019-03-18T02:43:56.892Z,5
2019-03-18T02:44:37.447Z,5
2019-03-18T02:45:18.079Z,4.93
2019-03-18T02:46:09.659Z,4.96
2019-03-18T02:46:39.206Z,5.04
2019-03-18T02:47:19.775Z,4.92
2019-03-18T02:48:00.370Z,4.94
2019-03-18T02:48:40.931Z,4.94
2019-03-18T02:49:21.554Z,4.96
2019-03-18T02:50:02.114Z,4.96
2019-03-18T02:50:42.671Z,4.9
2019-03-18T02:51:23.270Z,4.93
2019-03-18T02:52:03.921Z,4.99
2019-03-18T02:52:44.442Z,5.04
2019-03-18T02:53:24.997Z,4.97
2019-03-18T02:54:05.609Z,4.96
2019-03-18T02:54:46.190Z,4.9
2019-03-18T02:55:26.761Z,4.96
2019-03-18T02:56:07.321Z,4.93
2019-03-18T02:56:47.883Z,4.94
2019-03-18T02:57:28.455Z,4.94
2019-03-18T02:58:09.037Z,4.96
2019-03-18T02:58:49.612Z,4.96
2019-03-18T02:59:30.373Z,4.96
2019-03-18T03:00:10.928Z,4.94
2019-03-18T03:00:51.484Z,5
2019-03-18T03:01:32.051Z,4.96
2019-03-18T03:02:12.621Z,4.96
2019-03-18T03:02:53.180Z,4.96
2019-03-18T03:03:36.724Z,4.96
2019-03-18T03:04:14.332Z,4.87
2019-03-18T03:04:54.910Z,4.89
2019-03-18T03:05:35.466Z,4.94
2019-03-18T03:06:16.054Z,4.92
2019-03-18T03:06:56.605Z,4.92
2019-03-18T03:07:37.199Z,4.86
2019-03-18T03:08:17.767Z,4.89
2019-03-18T03:08:58.330Z,4.9
2019-03-18T03:09:38.884Z,4.92
2019-03-18T03:10:19.441Z,4.86
2019-03-18T03:11:00.017Z,4.92
2019-03-18T03:11:40.605Z,4.89
2019-03-18T03:12:21.230Z,4.92
2019-03-18T03:13:01.785Z,4.92
2019-03-18T03:13:42.342Z,4.9
2019-03-18T03:14:22.908Z,4.94
2019-03-18T03:15:03.467Z,4.86
2019-03-18T03:15:44.038Z,4.9
2019-03-18T03:16:26.805Z,4.87
2019-03-18T03:17:05.228Z,4.89
2019-03-18T03:17:45.793Z,4.86
2019-03-18T03:18:26.376Z,4.93
2019-03-18T03:19:06.947Z,4.92
2019-03-18T03:19:47.503Z,4.87
2019-03-18T03:20:28.250Z,4.84
2019-03-18T03:21:08.826Z,4.87
2019-03-18T03:21:49.422Z,4.92
2019-03-18T03:22:29.977Z,4.87
2019-03-18T03:23:10.545Z,4.86
2019-03-18T03:23:51.107Z,4.89
2019-03-18T03:24:31.658Z,4.94
2019-03-18T03:25:12.214Z,4.94
2019-03-18T03:25:52.771Z,4.92
2019-03-18T03:26:33.323Z,4.94
2019-03-18T03:27:13.907Z,4.99
2019-03-18T03:27:54.500Z,4.93
2019-03-18T03:28:35.062Z,4.96
2019-03-18T03:29:15.622Z,4.99
2019-03-18T03:29:56.185Z,4.92
2019-03-18T03:30:36.747Z,4.87
2019-03-18T03:31:17.310Z,4.89
2019-03-18T03:31:57.896Z,4.87
2019-03-18T03:32:38.441Z,4.87
2019-03-18T03:33:19.003Z,4.92
2019-03-18T03:33:59.556Z,4.87
2019-03-18T03:34:40.106Z,4.87
2019-03-18T03:35:20.681Z,4.94
2019-03-18T03:36:01.239Z,4.93
2019-03-18T03:36:41.801Z,4.86
2019-03-18T03:37:22.360Z,4.89
2019-03-18T03:38:02.918Z,4.86
2019-03-18T03:38:43.506Z,4.84
2019-03-18T03:39:24.076Z,4.74
2019-03-18T03:40:04.646Z,4.75
2019-03-18T03:40:45.232Z,4.94
2019-03-18T03:41:25.790Z,4.92
2019-03-18T03:42:06.384Z,4.93
2019-03-18T03:42:46.953Z,4.75
2019-03-18T03:43:27.512Z,4.86
2019-03-18T03:44:08.068Z,4.84
2019-03-18T03:44:48.628Z,4.86
2019-03-18T03:45:29.180Z,4.86
2019-03-18T03:46:09.741Z,4.77
2019-03-18T03:46:50.305Z,4.77
2019-03-18T03:47:30.876Z,4.74
2019-03-18T03:48:11.424Z,4.78
2019-03-18T03:48:51.977Z,4.82
2019-03-18T03:49:32.533Z,4.74
2019-03-18T03:50:13.094Z,4.75
2019-03-18T03:50:53.649Z,4.78
2019-03-18T03:51:34.207Z,4.78
2019-03-18T03:52:14.764Z,4.75
2019-03-18T03:52:55.326Z,4.77
2019-03-18T03:53:35.922Z,4.77
2019-03-18T03:54:16.439Z,4.77
2019-03-18T03:54:57.012Z,4.71
2019-03-18T03:55:37.528Z,4.77
2019-03-18T03:56:18.114Z,4.78
2019-03-18T03:56:58.678Z,4.73
2019-03-18T03:57:39.212Z,4.77
2019-03-18T03:58:19.836Z,4.8
2019-03-18T03:59:00.396Z,4.73
2019-03-18T03:59:40.951Z,4.63
2019-03-18T04:00:21.514Z,4.67
2019-03-18T04:01:02.062Z,4.63
2019-03-18T04:01:42.632Z,4.66
2019-03-18T04:02:23.191Z,4.67
2019-03-18T04:03:03.749Z,4.67
2019-03-18T04:03:44.300Z,4.6
2019-03-18T04:04:24.870Z,4.62
2019-03-18T04:05:05.424Z,4.67
2019-03-18T04:05:46.059Z,4.68
2019-03-18T04:06:26.551Z,4.62
2019-03-18T04:07:07.111Z,4.62
2019-03-18T04:07:47.686Z,4.62
2019-03-18T04:08:28.244Z,4.73
2019-03-18T04:09:08.808Z,4.68
2019-03-18T04:09:49.364Z,4.7
2019-03-18T04:10:29.941Z,4.7
2019-03-18T04:11:10.511Z,4.71
2019-03-18T04:11:51.075Z,4.68
2019-03-18T04:12:31.638Z,4.67
2019-03-18T04:13:12.201Z,4.71
2019-03-18T04:13:52.751Z,4.73
2019-03-18T04:14:33.332Z,4.7
2019-03-18T04:15:13.919Z,4.71
2019-03-18T04:15:54.448Z,4.73
2019-03-18T04:16:35.006Z,4.74
2019-03-18T04:17:15.557Z,4.73
2019-03-18T04:17:56.112Z,4.73
2019-03-18T04:18:36.689Z,4.77
2019-03-18T04:19:17.260Z,4.74
2019-03-18T04:19:57.817Z,4.73
2019-03-18T04:20:38.388Z,4.73
2019-03-18T04:21:18.953Z,4.74
2019-03-18T04:21:59.487Z,4.74
2019-03-18T04:22:40.034Z,4.73
2019-03-18T04:23:20.642Z,4.74
2019-03-18T04:24:01.174Z,4.86
2019-03-18T04:24:41.757Z,4.73
2019-03-18T04:25:22.331Z,4.77
2019-03-18T04:26:02.906Z,4.8
2019-03-18T04:26:43.445Z,4.73
2019-03-18T04:27:24.871Z,4.9
2019-03-18T04:28:04.568Z,4.75
2019-03-18T04:28:45.130Z,4.74
2019-03-18T04:29:25.679Z,4.74
2019-03-18T04:30:06.250Z,4.77
2019-03-18T04:30:46.843Z,4.74
2019-03-18T04:31:27.390Z,4.74
2019-03-18T04:32:07.958Z,4.87
2019-03-18T04:32:48.507Z,4.78
2019-03-18T04:33:29.069Z,4.73
2019-03-18T04:34:09.668Z,4.78
2019-03-18T04:34:50.224Z,4.75
2019-03-18T04:35:30.792Z,4.77
2019-03-18T04:36:11.398Z,4.86
2019-03-18T04:36:51.992Z,4.82
2019-03-18T04:37:32.574Z,4.73
2019-03-18T04:38:13.126Z,4.77
2019-03-18T04:38:53.673Z,4.82
2019-03-18T04:39:34.222Z,4.74
2019-03-18T04:40:14.914Z,4.8
2019-03-18T04:40:55.474Z,4.78
2019-03-18T04:41:36.070Z,4.8
2019-03-18T04:42:16.639Z,4.84
2019-03-18T04:42:57.217Z,4.77
2019-03-18T04:43:37.781Z,4.78
2019-03-18T04:44:18.331Z,4.8
2019-03-18T04:44:58.898Z,4.74
2019-03-18T04:45:41.966Z,4.75
2019-03-18T04:46:20.036Z,4.74
2019-03-18T04:47:00.591Z,4.73
2019-03-18T04:47:41.158Z,4.71
2019-03-18T04:48:21.720Z,4.77
2019-03-18T04:49:02.295Z,4.77
2019-03-18T04:49:42.873Z,4.77
2019-03-18T04:50:23.435Z,4.71
2019-03-18T04:51:04.043Z,4.74
2019-03-18T04:51:44.539Z,4.77
2019-03-18T04:52:25.112Z,4.9
2019-03-18T04:53:05.670Z,4.84
2019-03-18T04:53:46.229Z,4.92
2019-03-18T04:54:26.817Z,4.8
2019-03-18T04:55:07.372Z,4.89
2019-03-18T04:55:48.584Z,4.92
2019-03-18T04:56:29.197Z,4.92
2019-03-18T04:57:09.758Z,4.93
2019-03-18T04:57:50.309Z,4.92
2019-03-18T04:58:30.867Z,4.94
2019-03-18T04:59:11.418Z,4.89
2019-03-18T04:59:51.994Z,4.89
2019-03-18T05:00:32.565Z,4.92
2019-03-18T05:01:13.142Z,4.78
2019-03-18T05:01:53.716Z,4.87
2019-03-18T05:02:34.266Z,4.92
2019-03-18T05:03:14.818Z,4.92
2019-03-18T05:03:55.395Z,4.78
2019-03-18T05:04:35.945Z,4.87
2019-03-18T05:05:16.548Z,4.73
2019-03-18T05:05:57.073Z,4.78
2019-03-18T05:06:37.623Z,4.92
2019-03-18T05:07:18.196Z,4.74
2019-03-18T05:07:58.760Z,4.74
2019-03-18T05:08:39.336Z,4.74
2019-03-18T05:09:19.890Z,4.84
2019-03-18T05:10:00.434Z,4.78
2019-03-18T05:10:40.984Z,4.78
2019-03-18T05:11:21.544Z,4.75
2019-03-18T05:12:02.119Z,4.77
2019-03-18T05:12:42.685Z,4.74
2019-03-18T05:13:23.241Z,4.82
2019-03-18T05:14:03.786Z,4.8
2019-03-18T05:14:44.363Z,4.77
2019-03-18T05:15:24.927Z,4.8
2019-03-18T05:16:05.493Z,4.71
2019-03-18T05:16:46.044Z,4.78
2019-03-18T05:17:27.130Z,4.77
2019-03-18T05:18:07.175Z,4.78
2019-03-18T05:18:47.728Z,4.74
2019-03-18T05:19:28.286Z,4.75
2019-03-18T05:20:08.858Z,4.82
2019-03-18T05:20:49.410Z,4.89
2019-03-18T05:21:29.976Z,4.74
2019-03-18T05:22:10.539Z,4.77
2019-03-18T05:22:51.085Z,4.8
2019-03-18T05:23:31.661Z,4.92
2019-03-18T05:24:12.208Z,4.87
2019-03-18T05:24:52.767Z,4.94
2019-03-18T05:25:33.319Z,4.94
2019-03-18T05:26:13.905Z,4.92
2019-03-18T05:26:54.448Z,4.9
2019-03-18T05:27:35.023Z,4.86
2019-03-18T05:28:15.763Z,4.96
2019-03-18T05:28:56.339Z,4.99
2019-03-18T05:29:36.887Z,4.94
2019-03-18T05:30:17.454Z,4.92
2019-03-18T05:30:58.026Z,5.05
2019-03-18T05:31:38.596Z,4.99
2019-03-18T05:32:19.153Z,4.96
2019-03-18T05:32:59.712Z,5.02
2019-03-18T05:33:40.275Z,4.97
2019-03-18T05:34:20.835Z,5.1
2019-03-18T05:35:01.387Z,5.08
2019-03-18T05:35:41.955Z,5.1
2019-03-18T05:36:22.535Z,5.07
2019-03-18T05:37:03.110Z,5.05
2019-03-18T05:37:43.682Z,5.12
2019-03-18T05:38:24.307Z,5.11
2019-03-18T05:39:04.809Z,5.1
2019-03-18T05:39:45.357Z,5.1
2019-03-18T05:40:25.913Z,5.17
2019-03-18T05:41:06.462Z,5.14
2019-03-18T05:41:47.051Z,5.15
2019-03-18T05:42:27.576Z,5.14
2019-03-18T05:43:08.150Z,5.15
2019-03-18T05:43:48.784Z,5.1
2019-03-18T05:44:29.358Z,5.17
2019-03-18T05:45:09.955Z,5.14
2019-03-18T05:45:50.512Z,5.2
2019-03-18T05:46:31.132Z,5.17
2019-03-18T05:47:11.701Z,5.17
2019-03-18T05:47:52.281Z,5.25
2019-03-18T05:48:32.935Z,5.15
2019-03-18T05:49:13.537Z,5.15
2019-03-18T05:49:54.186Z,5.21
2019-03-18T05:50:34.658Z,5.26
2019-03-18T05:51:15.227Z,5.2
2019-03-18T05:51:55.810Z,5.15
2019-03-18T05:52:36.400Z,5.2
2019-03-18T05:53:16.957Z,5.17
2019-03-18T05:53:57.557Z,5.17
2019-03-18T05:54:38.117Z,5.2
2019-03-18T05:55:18.742Z,5.18
2019-03-18T05:55:59.287Z,5.26
2019-03-18T05:56:39.852Z,5.26
2019-03-18T05:57:20.415Z,5.23
2019-03-18T05:58:01.004Z,5.26
2019-03-18T05:58:41.562Z,5.2
2019-03-18T05:59:22.150Z,5.23
2019-03-18T06:00:02.715Z,5.12
2019-03-18T06:00:43.306Z,5.26
2019-03-18T06:01:23.850Z,5.26
2019-03-18T06:02:04.417Z,5.17
2019-03-18T06:02:46.952Z,5.17
2019-03-18T06:03:25.541Z,5.21
2019-03-18T06:04:06.133Z,5.17
2019-03-18T06:04:46.718Z,5.14
2019-03-18T06:05:27.288Z,5.23
2019-03-18T06:06:07.829Z,5.18
2019-03-18T06:06:48.441Z,5.14
2019-03-18T06:07:29.006Z,5.12
2019-03-18T06:08:11.567Z,5.15
2019-03-18T06:08:50.115Z,5.07
2019-03-18T06:09:30.682Z,5.15
2019-03-18T06:10:11.243Z,5.11
2019-03-18T06:10:51.811Z,5.14
2019-03-18T06:11:32.397Z,5.21
2019-03-18T06:12:12.967Z,5.14
2019-03-18T06:12:53.520Z,5.12
2019-03-18T06:13:34.091Z,5.18
2019-03-18T06:14:14.648Z,5.15
2019-03-18T06:14:55.215Z,5.1
2019-03-18T06:15:35.804Z,5.17
2019-03-18T06:16:16.361Z,5.15
2019-03-18T06:16:57.004Z,5.2
2019-03-18T06:17:37.494Z,5.18
2019-03-18T06:18:18.100Z,5.12
2019-03-18T06:19:00.244Z,5.15
2019-03-18T06:19:39.214Z,5.08
2019-03-18T06:20:19.799Z,5.04
2019-03-18T06:21:00.541Z,5.17
2019-03-18T06:21:41.094Z,5.15
2019-03-18T06:22:21.690Z,5.2
2019-03-18T06:23:02.266Z,5.21
2019-03-18T06:23:42.840Z,5.26
2019-03-18T06:24:23.413Z,5.15
2019-03-18T06:25:03.999Z,5.18
2019-03-18T06:25:44.585Z,5.2
2019-03-18T06:26:25.178Z,5.2
2019-03-18T06:27:05.702Z,5.23
2019-03-18T06:27:46.259Z,5.29
2019-03-18T06:28:26.805Z,5.2
2019-03-18T06:29:07.393Z,5.25
2019-03-18T06:29:47.959Z,5.28
2019-03-18T06:30:28.537Z,5.2
2019-03-18T06:31:09.102Z,5.29
2019-03-18T06:31:49.694Z,5.29
2019-03-18T06:32:30.258Z,5.26
2019-03-18T06:33:10.813Z,5.28
2019-03-18T06:33:51.421Z,5.21
2019-03-18T06:34:31.993Z,5.29
2019-03-18T06:35:12.575Z,5.26
2019-03-18T06:35:53.127Z,5.21
2019-03-18T06:36:33.719Z,5.21
2019-03-18T06:37:14.272Z,5.32
2019-03-18T06:37:54.892Z,5.26
2019-03-18T06:38:35.482Z,5.29
2019-03-18T06:39:16.043Z,5.29
2019-03-18T06:39:56.627Z,5.32
2019-03-18T06:40:37.160Z,5.29
2019-03-18T06:41:17.739Z,5.3
2019-03-18T06:41:58.286Z,5.38
2019-03-18T06:42:38.872Z,5.28
2019-03-18T06:43:19.436Z,5.29
2019-03-18T06:44:00.010Z,5.26
2019-03-18T06:44:40.614Z,5.25
2019-03-18T06:45:21.348Z,5.3
2019-03-18T06:46:01.987Z,5.25
2019-03-18T06:46:42.605Z,5.25
2019-03-18T06:47:23.132Z,5.26
2019-03-18T06:48:05.032Z,5.25
2019-03-18T06:48:44.321Z,5.23
2019-03-18T06:49:24.830Z,5.25
2019-03-18T06:50:05.591Z,5.26
2019-03-18T06:50:46.159Z,5.15
2019-03-18T06:51:26.757Z,5.17
2019-03-18T06:52:07.310Z,5.28
2019-03-18T06:52:47.865Z,5.25
2019-03-18T06:53:28.434Z,5.2
2019-03-18T06:54:08.998Z,5.25
2019-03-18T06:54:49.557Z,5.23
2019-03-18T06:55:30.626Z,5.18
2019-03-18T06:56:11.178Z,5.23
2019-03-18T06:56:51.752Z,5.21
2019-03-18T06:57:32.319Z,5.23
2019-03-18T06:58:12.866Z,5.21
2019-03-18T06:58:53.429Z,5.23
2019-03-18T06:59:34.006Z,5.18
2019-03-18T07:00:14.603Z,5.23
2019-03-18T07:00:55.148Z,5.18
2019-03-18T07:01:35.707Z,5.23
2019-03-18T07:02:16.259Z,5.23
2019-03-18T07:02:56.879Z,5.21
2019-03-18T07:03:37.511Z,5.2
2019-03-18T07:04:18.033Z,5.28
2019-03-18T07:04:58.587Z,5.28
2019-03-18T07:05:39.152Z,5.3
2019-03-18T07:06:19.713Z,5.32
2019-03-18T07:07:00.280Z,5.28
2019-03-18T07:07:40.855Z,5.33
2019-03-18T07:08:22.221Z,5.32
2019-03-18T07:09:02.780Z,5.44
2019-03-18T07:09:43.358Z,5.36
2019-03-18T07:10:23.936Z,5.36
2019-03-18T07:11:04.508Z,5.44
2019-03-18T07:11:45.075Z,5.51
2019-03-18T07:12:25.657Z,5.71
2019-03-18T07:13:06.210Z,5.82
2019-03-18T07:13:46.801Z,6.08
2019-03-18T07:14:27.365Z,6.11
2019-03-18T07:15:07.924Z,6.12
2019-03-18T07:15:48.473Z,6.26
2019-03-18T07:16:29.044Z,6.28
2019-03-18T07:17:09.733Z,6.28
2019-03-18T07:17:50.187Z,6.33
2019-03-18T07:18:30.737Z,6.31
2019-03-18T07:19:11.510Z,6.27
2019-03-18T07:19:52.109Z,6.19
2019-03-18T07:20:32.684Z,6.16
2019-03-18T07:21:14.689Z,6.08
2019-03-18T07:21:54.009Z,6.04
2019-03-18T07:22:34.727Z,6.09
2019-03-18T07:23:15.423Z,6.04
2019-03-18T07:23:56.063Z,6.01
2019-03-18T07:24:36.683Z,6.04
2019-03-18T07:25:17.256Z,5.97
2019-03-18T07:25:57.805Z,5.9
2019-03-18T07:26:38.371Z,5.99
2019-03-18T07:27:18.948Z,5.93
2019-03-18T07:27:59.522Z,5.82
2019-03-18T07:28:40.087Z,5.79
2019-03-18T07:29:20.657Z,5.8
2019-03-18T07:30:01.212Z,5.76
2019-03-18T07:30:41.772Z,5.76
2019-03-18T07:31:22.365Z,5.84
2019-03-18T07:32:02.881Z,5.73
2019-03-18T07:32:43.456Z,5.79
2019-03-18T07:33:24.005Z,5.8
2019-03-18T07:34:04.572Z,5.8
2019-03-18T07:34:45.157Z,5.86
2019-03-18T07:35:25.746Z,5.82
2019-03-18T07:36:06.306Z,5.76
2019-03-18T07:36:46.875Z,5.82
2019-03-18T07:37:27.432Z,5.76
2019-03-18T07:38:08.005Z,5.82
2019-03-18T07:38:49.024Z,5.8
2019-03-18T07:39:29.594Z,5.82
2019-03-18T07:40:11.268Z,5.79
2019-03-18T07:40:50.712Z,5.83
2019-03-18T07:41:31.272Z,5.83
2019-03-18T07:42:11.821Z,5.86
2019-03-18T07:42:52.380Z,5.97
2019-03-18T07:43:32.964Z,5.91
2019-03-18T07:44:13.524Z,5.87
2019-03-18T07:44:54.105Z,5.94
2019-03-18T07:45:34.734Z,5.9
2019-03-18T07:46:15.390Z,5.93
2019-03-18T07:46:55.972Z,5.97
2019-03-18T07:47:36.981Z,5.97
2019-03-18T07:48:30.201Z,6.02
2019-03-18T07:48:58.987Z,5.99
2019-03-18T07:49:39.636Z,6.01
2019-03-18T07:50:20.190Z,6.01
2019-03-18T07:51:00.758Z,6.01
2019-03-18T07:51:41.332Z,5.98
2019-03-18T07:52:22.067Z,6.01
2019-03-18T07:53:02.430Z,6.02
2019-03-18T07:53:42.995Z,6.01
2019-03-18T07:54:32.453Z,6.02
2019-03-18T07:55:04.113Z,5.97
2019-03-18T07:55:44.670Z,6.04
2019-03-18T07:56:25.249Z,6.04
2019-03-18T07:57:05.823Z,6.04
2019-03-18T07:57:46.384Z,6.09
2019-03-18T07:58:26.936Z,6.08
2019-03-18T07:59:07.491Z,6.05
2019-03-18T07:59:48.078Z,6.05
2019-03-18T08:00:28.849Z,6.04
2019-03-18T08:01:09.443Z,6.05
2019-03-18T08:01:50.069Z,6.09
2019-03-18T08:02:30.690Z,6.09
2019-03-18T08:03:11.376Z,6.07
2019-03-18T08:03:51.944Z,5.97
2019-03-18T08:04:37.039Z,6.02
2019-03-18T08:05:13.081Z,6.04
2019-03-18T08:05:53.758Z,6.02
2019-03-18T08:06:34.408Z,6.04
2019-03-18T08:07:15.246Z,6.02
2019-03-18T08:07:55.736Z,6.02
2019-03-18T08:08:37.811Z,6.07
2019-03-18T08:09:19.133Z,6.05
2019-03-18T08:09:59.948Z,6.07
2019-03-18T08:10:41.201Z,6.08
2019-03-18T08:11:21.319Z,6.08
2019-03-18T08:12:01.973Z,6.07
2019-03-18T08:12:42.604Z,6.04
2019-03-18T08:13:23.231Z,6.02
2019-03-18T08:14:03.790Z,6.02
2019-03-18T08:14:44.350Z,5.91
2019-03-18T08:15:24.907Z,6.02
2019-03-18T08:16:05.474Z,6.02
2019-03-18T08:16:46.016Z,6.08
2019-03-18T08:17:26.594Z,6.09
2019-03-18T08:18:07.148Z,6.05
2019-03-18T08:18:47.748Z,6.04
2019-03-18T08:19:28.939Z,6.07
2019-03-18T08:20:09.809Z,6.07
2019-03-18T08:20:50.480Z,6.04
2019-03-18T08:21:31.112Z,6.14
2019-03-18T08:22:12.590Z,6.02
2019-03-18T08:22:53.232Z,6.11
2019-03-18T08:23:33.903Z,6.14
2019-03-18T08:24:14.621Z,6.14
2019-03-18T08:24:55.278Z,6.12
2019-03-18T08:25:35.993Z,6.19
2019-03-18T08:26:16.673Z,6.12
2019-03-18T08:26:57.219Z,6.12
2019-03-18T08:27:37.969Z,6.17
2019-03-18T08:28:18.536Z,6.16
2019-03-18T08:28:59.212Z,6.16
2019-03-18T08:29:39.801Z,6.12
2019-03-18T08:30:20.486Z,6.16
2019-03-18T08:31:01.043Z,6.2
2019-03-18T08:31:41.603Z,6.17
2019-03-18T08:32:22.185Z,6.14
2019-03-18T08:33:02.774Z,6.12
2019-03-18T08:33:43.324Z,6.19
2019-03-18T08:34:24.011Z,6.19
2019-03-18T08:35:04.623Z,6.11
2019-03-18T08:35:46.390Z,6.16
2019-03-18T08:36:27.002Z,6.11
2019-03-18T08:37:07.786Z,6.12
2019-03-18T08:37:48.417Z,6.19
2019-03-18T08:38:28.992Z,6.17
2019-03-18T08:39:09.533Z,6.2
2019-03-18T08:39:50.090Z,6.28
2019-03-18T08:40:30.777Z,6.28
2019-03-18T08:41:11.364Z,6.19
2019-03-18T08:41:51.959Z,6.24
2019-03-18T08:42:32.540Z,6.2
2019-03-18T08:43:13.135Z,6.26
2019-03-18T08:43:53.700Z,6.28
2019-03-18T08:44:34.279Z,6.31
2019-03-18T08:45:14.841Z,6.27
2019-03-18T08:45:55.422Z,6.35
2019-03-18T08:46:35.955Z,6.26
2019-03-18T08:47:17.706Z,6.33
2019-03-18T08:47:57.383Z,6.26
2019-03-18T08:48:37.960Z,6.24
2019-03-18T08:49:19.238Z,6.27
2019-03-18T08:49:59.872Z,6.27
2019-03-18T08:50:40.444Z,6.31
2019-03-18T08:51:21.135Z,6.3
2019-03-18T08:52:01.760Z,6.45
2019-03-18T08:52:42.305Z,6.31
2019-03-18T08:53:22.903Z,6.39
2019-03-18T08:54:03.450Z,6.39
2019-03-18T08:54:44.020Z,6.44
2019-03-18T08:55:24.569Z,6.39
2019-03-18T08:56:05.130Z,6.36
2019-03-18T08:56:45.703Z,6.42
2019-03-18T08:57:26.283Z,6.36
2019-03-18T08:58:07.103Z,6.35
2019-03-18T08:58:47.649Z,6.41
2019-03-18T08:59:28.284Z,6.39
2019-03-18T09:00:08.845Z,6.39
2019-03-18T09:00:49.551Z,6.36
2019-03-18T09:01:30.129Z,6.42
2019-03-18T09:02:10.703Z,6.44